| time (UTC) | temp F | wind direction | speed MPH | gust MPH | rain 1hr in | rain 24hr in | rain mn in | humidity % | barometer mb |
| 20260510230055 | 66 | 360 | 3.0 | 8.0 | 0.00 | 0.00 | 0.00 | 37 | 1023.3 |
| 20260510224513 | 66 | 360 | 4.0 | 9.0 | 0.00 | 0.00 | 0.00 | 38 | 1023.5 |
| 20260510223029 | 66 | 360 | 2.0 | 9.0 | 0.00 | 0.00 | 0.00 | 40 | 1023.3 |
| 20260510221542 | 66 | 360 | 3.0 | 12.0 | 0.00 | 0.00 | 0.00 | 40 | 1023.2 |
| 20260510220053 | 66 | 360 | 3.0 | 10.0 | 0.00 | 0.00 | 0.00 | 38 | 1023.1 |
| 20260510214515 | 65 | 360 | 2.0 | 10.0 | 0.00 | 0.00 | 0.00 | 38 | 1023.2 |
| 20260510213025 | 66 | 360 | 2.0 | 11.0 | 0.00 | 0.00 | 0.00 | 41 | 1023.2 |
| 20260510211545 | 65 | 360 | 2.0 | 8.0 | 0.00 | 0.00 | 0.00 | 41 | 1023.2 |
| 20260510210055 | 65 | 360 | 4.0 | 13.0 | 0.00 | 0.00 | 0.00 | 38 | 1023.3 |
| 20260510210004 | 65 | 360 | 4.0 | 13.0 | 0.00 | 0.00 | 0.00 | 41 | 1023.3 |
| 20260510204517 | 65 | 360 | 6.0 | 14.0 | 0.00 | 0.00 | 0.00 | 37 | 1023.5 |
| 20260510203034 | 64 | 360 | 5.0 | 11.0 | 0.00 | 0.00 | 0.00 | 41 | 1023.5 |
| 20260510201543 | 65 | 360 | 3.0 | 9.0 | 0.00 | 0.00 | 0.00 | 41 | 1023.6 |
| 20260510200013 | 65 | 360 | 5.0 | 9.0 | 0.00 | 0.00 | 0.00 | 39 | 1023.9 |
| 20260510194528 | 65 | 360 | 6.0 | 12.0 | 0.00 | 0.00 | 0.00 | 37 | 1023.9 |
| 20260510193045 | 65 | 360 | 0.0 | 7.0 | 0.00 | 0.00 | 0.00 | 43 | 1024.0 |
| 20260510191506 | 65 | 360 | 5.0 | 8.0 | 0.00 | 0.00 | 0.00 | 37 | 1024.0 |
| 20260510190022 | 65 | 360 | 3.0 | 11.0 | 0.00 | 0.00 | 0.00 | 38 | 1023.8 |
| 20260510184541 | 65 | 360 | 4.0 | 7.0 | 0.00 | 0.00 | 0.00 | 40 | 1023.7 |
| 20260510183053 | 64 | 360 | 6.0 | 11.0 | 0.00 | 0.00 | 0.00 | 37 | 1023.9 |
| 20260510181513 | 64 | 360 | 2.0 | 10.0 | 0.00 | 0.00 | 0.00 | 39 | 1023.9 |
| 20260510180034 | 64 | 360 | 3.0 | 8.0 | 0.00 | 0.00 | 0.00 | 39 | 1023.9 |
| 20260510174558 | 63 | 360 | 4.0 | 8.0 | 0.00 | 0.00 | 0.00 | 39 | 1023.7 |
| 20260510173013 | 64 | 360 | 5.0 | 10.0 | 0.00 | 0.00 | 0.00 | 38 | 1023.9 |
| 20260510171529 | 65 | 360 | 7.0 | 13.0 | 0.00 | 0.00 | 0.00 | 38 | 1023.8 |
| 20260510170044 | 64 | 360 | 4.0 | 11.0 | 0.00 | 0.00 | 0.00 | 43 | 1023.7 |
| 20260510164556 | 64 | 360 | 4.0 | 13.0 | 0.00 | 0.00 | 0.00 | 40 | 1023.6 |
| 20260510164507 | 64 | 360 | 4.0 | 13.0 | 0.00 | 0.00 | 0.00 | 45 | 1023.5 |
| 20260510163009 | 63 | 360 | 3.0 | 12.0 | 0.00 | 0.00 | 0.00 | 41 | 1023.6 |
| 20260510161532 | 62 | 360 | 6.0 | 13.0 | 0.00 | 0.00 | 0.00 | 42 | 1023.8 |
| 20260510160039 | 61 | 360 | 3.0 | 11.0 | 0.00 | 0.00 | 0.00 | 43 | 1024.1 |
| 20260510154602 | 61 | 360 | 4.0 | 11.0 | 0.00 | 0.00 | 0.00 | 46 | 1023.8 |
| 20260510153013 | 60 | 360 | 3.0 | 11.0 | 0.00 | 0.00 | 0.00 | 44 | 1023.4 |
| 20260510151533 | 59 | 360 | 5.0 | 10.0 | 0.00 | 0.00 | 0.00 | 45 | 1023.3 |
| 20260510150045 | 59 | 360 | 6.0 | 11.0 | 0.00 | 0.00 | 0.00 | 46 | 1023.3 |
| 20260510144611 | 58 | 360 | 5.0 | 10.0 | 0.00 | 0.00 | 0.00 | 48 | 1023.5 |
| 20260510143006 | 57 | 360 | 6.0 | 12.0 | 0.00 | 0.00 | 0.00 | 45 | 1023.6 |
| 20260510141526 | 56 | 360 | 4.0 | 9.0 | 0.00 | 0.00 | 0.00 | 52 | 1023.4 |
| 20260510140039 | 55 | 360 | 3.0 | 8.0 | 0.00 | 0.00 | 0.00 | 52 | 1023.3 |
| 20260510134610 | 55 | 360 | 5.0 | 9.0 | 0.00 | 0.00 | 0.00 | 52 | 1023.3 |
| 20260510133009 | 55 | 360 | 3.0 | 7.0 | 0.00 | 0.00 | 0.00 | 53 | 1023.1 |
| 20260510131524 | 54 | 360 | 3.0 | 5.0 | 0.00 | 0.00 | 0.00 | 53 | 1022.9 |
| 20260510130029 | 54 | 360 | 3.0 | 8.0 | 0.00 | 0.00 | 0.00 | 53 | 1022.8 |
| 20260510124555 | 54 | 360 | 5.0 | 10.0 | 0.00 | 0.00 | 0.00 | 51 | 1022.4 |
| 20260510123005 | 54 | 360 | 3.0 | 10.0 | 0.00 | 0.00 | 0.00 | 51 | 1022.0 |
| 20260510121527 | 54 | 360 | 5.0 | 11.0 | 0.00 | 0.00 | 0.00 | 52 | 1021.4 |
| 20260510120038 | 54 | 360 | 4.0 | 9.0 | 0.00 | 0.00 | 0.00 | 49 | 1021.0 |
| 20260510114549 | 55 | 360 | 5.0 | 11.0 | 0.00 | 0.00 | 0.00 | 49 | 1021.0 |
| 20260510113013 | 55 | 360 | 6.0 | 11.0 | 0.00 | 0.00 | 0.00 | 49 | 1021.0 |
| 20260510111521 | 55 | 360 | 3.0 | 13.0 | 0.00 | 0.00 | 0.00 | 49 | 1020.8 |
| 20260510110045 | 56 | 360 | 7.0 | 11.0 | 0.00 | 0.00 | 0.00 | 48 | 1020.4 |
| 20260510104605 | 56 | 360 | 4.0 | 10.0 | 0.00 | 0.00 | 0.00 | 49 | 1020.4 |
| 20260510103005 | 56 | 360 | 6.0 | 13.0 | 0.00 | 0.00 | 0.00 | 47 | 1020.0 |
| 20260510101521 | 56 | 360 | 6.0 | 9.0 | 0.00 | 0.00 | 0.00 | 47 | 1019.8 |
| 20260510100033 | 56 | 360 | 5.0 | 9.0 | 0.00 | 0.00 | 0.00 | 48 | 1019.4 |
| 20260510094548 | 56 | 360 | 5.0 | 8.0 | 0.00 | 0.00 | 0.00 | 49 | 1019.1 |
| 20260510093007 | 57 | 360 | 6.0 | 15.0 | 0.00 | 0.00 | 0.00 | 53 | 1018.6 |
| 20260510091521 | 58 | 360 | 7.0 | 12.0 | 0.00 | 0.00 | 0.00 | 50 | 1019.2 |
| 20260510090031 | 58 | 360 | 6.0 | 11.0 | 0.00 | 0.00 | 0.00 | 49 | 1018.8 |
| 20260510084541 | 59 | 360 | 6.0 | 11.0 | 0.00 | 0.00 | 0.00 | 50 | 1019.1 |
| 20260510083003 | 59 | 360 | 6.0 | 11.0 | 0.00 | 0.00 | 0.00 | 51 | 1018.5 |
| 20260510081514 | 59 | 360 | 6.0 | 11.0 | 0.00 | 0.00 | 0.00 | 52 | 1018.5 |
| 20260510080032 | 60 | 360 | 5.0 | 12.0 | 0.00 | 0.00 | 0.00 | 54 | 1018.3 |
| 20260510074541 | 60 | 360 | 3.0 | 10.0 | 0.00 | 0.00 | 0.00 | 58 | 1018.0 |
| 20260510073057 | 60 | 360 | 5.0 | 9.0 | 0.00 | 0.00 | 0.00 | 59 | 1017.5 |
| 20260510071513 | 61 | 360 | 7.0 | 14.0 | 0.00 | 0.00 | 0.00 | 60 | 1017.5 |
| 20260510070028 | 62 | 360 | 2.0 | 8.0 | 0.00 | 0.00 | 0.00 | 61 | 1017.0 |
| 20260510064543 | 62 | 360 | 5.0 | 10.0 | 0.00 | 0.00 | 0.00 | 60 | 1017.0 |
| 20260510063011 | 63 | 360 | 5.0 | 8.0 | 0.00 | 0.00 | 0.00 | 60 | 1017.0 |
| 20260510061530 | 64 | 360 | 2.0 | 4.0 | 0.00 | 0.00 | 0.00 | 60 | 1016.6 |
| 20260510060046 | 64 | 360 | 2.0 | 6.0 | 0.00 | 0.00 | 0.00 | 58 | 1016.8 |
| 20260510054600 | 64 | 360 | 1.0 | 6.0 | 0.00 | 0.00 | 0.00 | 58 | 1016.2 |
| 20260510053011 | 64 | 360 | 4.0 | 6.0 | 0.00 | 0.00 | 0.00 | 57 | 1016.1 |
| 20260510051534 | 65 | 360 | 4.0 | 10.0 | 0.00 | 0.00 | 0.00 | 56 | 1015.9 |
| 20260510050049 | 65 | 360 | 6.0 | 10.0 | 0.00 | 0.00 | 0.00 | 55 | 1015.8 |
| 20260510044555 | 65 | 360 | 1.0 | 3.0 | 0.00 | 0.00 | 0.00 | 55 | 1015.5 |
| 20260510043014 | 66 | 360 | 2.0 | 3.0 | 0.00 | 0.00 | 0.00 | 55 | 1015.2 |
| 20260510041528 | 66 | 360 | 0.0 | 2.0 | 0.00 | 0.00 | 0.00 | 53 | 1015.4 |
| 20260510040042 | 67 | 360 | 1.0 | 3.0 | 0.00 | 0.00 | 0.00 | 52 | 1015.0 |
| 20260510034559 | 67 | 360 | 3.0 | 6.0 | 0.00 | 0.00 | 0.00 | 50 | 1015.0 |
| 20260510034507 | 67 | 360 | 3.0 | 6.0 | 0.00 | 0.00 | 0.00 | 50 | 1015.0 |
| 20260510033019 | 68 | 360 | 5.0 | 9.0 | 0.00 | 0.00 | 0.00 | 49 | 1014.7 |
| 20260510031608 | 69 | 360 | 5.0 | 13.0 | 0.00 | 0.00 | 0.00 | 50 | 1014.4 |
| 20260510030054 | 68 | 360 | 3.0 | 5.0 | 0.00 | 0.00 | 0.00 | 54 | 1014.0 |
| 20260510024512 | 69 | 360 | 0.0 | 1.0 | 0.00 | 0.00 | 0.00 | 56 | 1013.2 |
| 20260510023041 | 69 | 360 | 0.0 | 3.0 | 0.00 | 0.00 | 0.00 | 54 | 1012.7 |
| 20260510021545 | 70 | 360 | 0.0 | 5.0 | 0.00 | 0.00 | 0.00 | 55 | 1012.2 |
| 20260510020051 | 70 | 360 | 1.0 | 3.0 | 0.00 | 0.00 | 0.00 | 54 | 1012.1 |
| 20260510014512 | 71 | 360 | 1.0 | 13.0 | 0.00 | 0.00 | 0.00 | 53 | 1012.1 |
| 20260510013023 | 71 | 360 | 4.0 | 9.0 | 0.00 | 0.00 | 0.00 | 52 | 1011.6 |
| 20260510011555 | 71 | 360 | 1.0 | 9.0 | 0.00 | 0.00 | 0.00 | 53 | 1011.5 |
| 20260510010105 | 71 | 360 | 1.0 | 7.0 | 0.00 | 0.00 | 0.00 | 53 | 1011.8 |
| 20260510004509 | 72 | 360 | 1.0 | 6.0 | 0.00 | 0.00 | 0.00 | 52 | 1011.2 |
| 20260510003020 | 72 | 360 | 4.0 | 9.0 | 0.00 | 0.00 | 0.00 | 50 | 1011.0 |
| 20260510001539 | 73 | 360 | 4.0 | 10.0 | 0.00 | 0.00 | 0.00 | 50 | 1010.8 |
| 20260510000052 | 74 | 360 | 5.0 | 10.0 | 0.00 | 0.00 | 0.00 | 50 | 1010.6 |
| 20260509234508 | 74 | 360 | 5.0 | 16.0 | 0.00 | 0.00 | 0.00 | 47 | 1010.7 |
| 20260509233030 | 74 | 360 | 4.0 | 10.0 | 0.00 | 0.00 | 0.00 | 47 | 1010.5 |
| 20260509231558 | 75 | 360 | 2.0 | 4.0 | 0.00 | 0.00 | 0.00 | 45 | 1010.7 |